Airfield :
LOGIN :

Register | Disclaimer

   EN    FR    IT 

 










Legend :    VFR   Marginal VFR   IFR   Intensive IFR   Very Intensive IFR
Visi :
Ceiling :
>= 8 km
>= 3000ft
5 to 8 km
1000 to 3000 ft
1500m to 5 km
500 to 1000 ft
800 to 1500m
200 to 500 ft
< 800m
< 200 ft
Symbols :   Thunderstorms  Fog  Heavy snow  Heavy precipitations  Wind > 20 kt
SIGMETs :     Misc.  Thunderstorms  Icing  Turbulence  Mountain Waves  Volcanic Ashes







- Airport Elevation : 22 ft
- IATA code : SKG


LGTS - Thessaloniki

CURRENT METAR :
  • 201050Z VRB03KT CAVOK 12/06 Q1020 NOSIG

EXPIRED METARs :
  • 201020Z VRB03KT CAVOK 10/06 Q1020 NOSIG
  • 200950Z 29004KT 8000 FEW008 10/06 Q1020 NOSIG
  • 200920Z VRB03KT 8000 FEW008 08/05 Q1020 NOSIG
  • 200850Z VRB03KT 8000 4000SE BR FEW008 08/05 Q1020 BECMG CAVOK
  • 200820Z VRB03KT 8000 4000S BR FEW008 07/05 Q1020 BECMG CAVOK

TAF TAF LGTS
Valid from the 20 at 06:00 until the 21 at 06:00 UTC


200500Z 2006/2106 VRB03KT CAVOK
PROB40
TEMPO 2006/2008 5000 BR SCT008
BECMG 2100/2102 35015KT
No reported NOTAMs for that airfield.



MET'MAP, your aeronautical weather chart ! - Copyright ORBIFLY December 2007 - Disclaimer

ORBIFLY MET'MAP TEAM :

Programming & Development : Alexandra Zaïnal
Concept & Development : Baudouin d'Aumeries
Co-Development & Prog : Marc-Olivier Méhu
Technical & hardware support : Manuel Goepfert

Contact : metmap@orbifly.com




SOURCES & CREDITS :

   NOAA